.
WxDataArchive / Data Records for 2014-03-25
2014-03-24 March 2014 2014-03-26

Data Records for Tuesday, 25 March 2014

Time	Temp	Chill	HIndex	Humid	Dewpt	 Wind 	HiWind	WindDir	Rain 	Barom
-----	----	-----	------	-----	-----	------	------	-------	-----	-----
00:00	20.6	20.6	20.6	64	10.4	0	0	---	0.00	30.130 
00:05	20.5	20.5	20.5	64	10.3	0	0	---	0.00	30.130 
00:10	20.3	20.3	20.3	65	10.4	0	0	---	0.00	30.130 
00:15	20.3	20.3	20.3	65	10.4	0	0	---	0.00	30.126 
00:20	20.2	20.2	20.2	65	10.3	0	0	---	0.00	30.126 
00:25	20.0	20.0	20.0	65	10.2	0	0	---	0.00	30.126 
00:30	20.0	20.0	20.0	65	10.2	0	0	---	0.00	30.125 
00:35	19.9	19.9	19.9	65	10.1	0	0	---	0.00	30.125 
00:40	19.9	19.9	19.9	65	10.1	0	0	---	0.00	30.125 
00:45	19.7	19.7	19.7	66	10.2	0	0	---	0.00	30.122 
00:50	19.7	19.7	19.7	66	10.2	0	0	---	0.00	30.122 
00:55	19.5	19.5	19.5	66	10.0	0	0	---	0.00	30.122 
01:00	19.4	19.4	19.4	67	10.3	0	0	---	0.00	30.116 
01:05	19.2	19.2	19.2	67	10.1	0	0	---	0.00	30.116 
01:10	19.1	19.1	19.1	68	10.3	0	0	---	0.00	30.116 
01:15	19.1	19.1	19.1	69	10.6	0	0	---	0.00	30.110 
01:20	18.9	18.9	18.9	69	10.4	0	0	---	0.00	30.110 
01:25	18.8	18.8	18.8	69	10.3	0	0	---	0.00	30.110 
01:30	18.6	18.6	18.6	70	10.5	0	0	---	0.00	30.101 
01:35	18.6	18.6	18.6	71	10.8	0	0	---	0.00	30.101 
01:40	18.4	18.4	18.4	71	10.6	0	0	---	0.00	30.101 
01:45	18.4	18.4	18.4	72	10.9	0	0	---	0.00	30.098 
01:50	18.4	18.4	18.4	72	10.9	0	0	---	0.00	30.098 
01:55	18.4	18.4	18.4	72	10.9	0	0	---	0.00	30.098 
02:00	18.4	18.4	18.4	72	10.9	0	0	---	0.00	30.089 
02:05	18.4	18.4	18.4	72	10.9	0	0	---	0.00	30.089 
02:10	18.3	18.3	18.3	72	10.8	0	0	---	0.00	30.089 
02:15	18.3	18.3	18.3	72	10.8	0	0	---	0.00	30.085 
02:20	18.3	18.3	18.3	73	11.1	0	0	---	0.00	30.085 
02:25	18.1	18.1	18.1	73	10.9	0	0	---	0.00	30.085 
02:30	18.3	18.3	18.3	73	11.1	0	0	---	0.00	30.084 
02:35	18.3	18.3	18.3	74	11.4	0	0	---	0.00	30.084 
02:40	18.4	18.4	18.4	74	11.5	0	0	---	0.00	30.084 
02:45	18.4	18.4	18.4	75	11.8	0	0	---	0.00	30.077 
02:50	18.6	18.6	18.6	75	12.0	0	0	---	0.00	30.077 
02:55	18.6	18.6	18.6	76	12.3	0	0	---	0.00	30.077 
03:00	18.8	18.8	18.8	76	12.5	0	0	---	0.00	30.068 
03:05	18.9	18.9	18.9	76	12.6	0	0	---	0.00	30.068 
03:10	18.9	18.9	18.9	76	12.6	0	0	---	0.00	30.068 
03:15	18.9	18.9	18.9	76	12.6	0	0	---	0.00	30.065 
03:20	19.1	19.1	19.1	76	12.8	0	0	---	0.00	30.065 
03:25	19.2	19.2	19.2	76	12.9	0	0	---	0.00	30.065 
03:30	19.4	19.4	19.4	76	13.1	0	0	---	0.00	30.054 
03:35	19.5	19.5	19.5	76	13.2	0	0	---	0.00	30.054 
03:40	19.7	19.7	19.7	76	13.4	0	0	---	0.00	30.054 
03:45	19.9	19.9	19.9	76	13.6	0	0	---	0.00	30.047 
03:50	20.0	20.0	20.0	76	13.7	0	0	---	0.00	30.047 
03:55	20.2	20.2	20.2	76	13.9	0	0	---	0.00	30.047 
04:00	20.3	20.3	20.3	76	14.0	0	0	---	0.00	30.036 
04:05	20.5	20.5	20.5	76	14.2	0	0	---	0.00	30.036 
04:10	20.5	20.5	20.5	76	14.2	0	0	---	0.00	30.036 
04:15	20.6	20.6	20.6	76	14.3	0	0	---	0.00	30.030 
04:20	20.6	20.6	20.6	76	14.3	0	0	---	0.00	30.030 
04:25	20.6	20.6	20.6	77	14.6	0	0	---	0.00	30.030 
04:30	20.8	20.8	20.8	77	14.7	0	0	---	0.00	30.020 
04:35	21.1	21.1	21.1	77	15.0	0	0	---	0.00	30.020 
04:40	21.3	21.3	21.3	76	14.9	0	0	---	0.00	30.020 
04:45	21.6	21.6	21.6	76	15.2	0	0	---	0.00	30.014 
04:50	21.9	21.9	21.9	76	15.5	0	0	---	0.00	30.014 
04:55	22.4	22.4	22.4	75	15.7	0	1	292	0.00	30.014 
05:00	22.7	22.7	22.7	73	15.4	0	0	---	0.00	30.008 
05:05	23.2	23.2	23.2	72	15.5	0	0	---	0.00	30.008 
05:10	23.3	23.3	23.3	70	15.0	0	0	---	0.00	30.008 
05:15	23.6	23.6	23.6	69	14.9	0	0	---	0.00	30.001 
05:20	23.8	23.8	23.8	69	15.1	0	1	292	0.00	30.001 
05:25	23.9	23.9	23.9	68	14.9	0	0	---	0.00	30.001 
05:30	24.2	24.2	24.2	67	14.8	0	1	292	0.00	29.999 
05:35	24.4	24.4	24.4	66	14.7	0	0	---	0.00	29.999 
05:40	24.7	24.7	24.7	66	15.0	0	0	---	0.00	29.999 
05:45	24.7	24.7	24.7	65	14.6	0	0	---	0.00	29.998 
05:50	24.8	24.8	24.8	65	14.7	0	0	---	0.00	29.998 
05:55	25.0	25.0	25.0	65	14.9	0	0	---	0.00	29.998 
06:00	25.1	25.1	25.1	65	15.0	0	0	---	0.00	29.993 
06:05	25.3	25.3	25.3	65	15.2	0	1	292	0.00	29.993 
06:10	25.4	25.4	25.4	66	15.7	0	0	---	0.00	29.993 
06:15	25.4	25.4	25.4	66	15.7	0	1	292	0.00	29.985 
06:20	25.6	25.6	25.6	66	15.8	0	0	---	0.00	29.985 
06:25	25.7	25.7	25.7	67	16.3	0	0	---	0.00	29.985 
06:30	25.7	25.7	25.7	67	16.3	0	1	292	0.00	29.983 
06:35	25.7	25.7	25.7	67	16.3	0	0	---	0.00	29.983 
06:40	25.7	25.7	25.7	67	16.3	0	0	---	0.00	29.983 
06:45	25.7	25.7	25.7	68	16.6	0	1	292	0.00	29.982 
06:50	25.7	25.7	25.7	69	17.0	0	1	292	0.00	29.982 
06:55	25.7	25.7	25.7	69	17.0	0	0	---	0.00	29.982 
07:00	25.7	25.7	25.7	69	17.0	0	1	292	0.00	29.975 
07:05	25.7	25.7	25.7	69	17.0	0	1	292	0.00	29.975 
07:10	25.6	25.6	25.6	70	17.2	0	0	---	0.00	29.975 
07:15	25.4	25.4	25.4	70	17.0	0	1	292	0.00	29.971 
07:20	25.3	25.3	25.3	70	16.9	0	0	---	0.00	29.971 
07:25	25.1	25.1	25.1	71	17.0	0	0	---	0.00	29.971 
07:30	25.0	25.0	25.0	71	16.9	0	0	---	0.00	29.971 
07:35	25.0	25.0	25.0	71	16.9	0	1	292	0.00	29.971 
07:40	25.0	25.0	25.0	72	17.3	0	1	292	0.00	29.971 
07:45	25.0	25.0	25.0	72	17.3	0	0	---	0.00	29.972 
07:50	25.1	25.1	25.1	73	17.7	0	0	---	0.00	29.972 
07:55	25.3	25.3	25.3	73	17.9	0	0	---	0.00	29.972 
08:00	25.4	25.4	25.4	73	18.0	0	0	---	0.00	29.971 
08:05	25.7	25.7	25.7	73	18.3	0	0	---	0.00	29.971 
08:10	25.8	25.8	25.8	73	18.4	0	0	---	0.00	29.971 
08:15	26.0	26.0	26.0	73	18.6	0	0	---	0.00	29.971 
08:20	26.1	26.1	26.1	73	18.7	0	1	292	0.00	29.971 
08:25	26.4	26.4	26.4	72	18.6	0	1	292	0.00	29.971 
08:30	26.7	26.7	26.7	71	18.6	0	3	292	0.00	29.972 
08:35	27.0	27.0	27.0	70	18.5	0	1	292	0.00	29.972 
08:40	27.2	27.2	27.2	69	18.4	0	1	292	0.00	29.972 
08:45	27.5	27.5	27.5	69	18.7	0	2	292	0.00	29.971 
08:50	27.6	27.6	27.6	69	18.8	0	1	292	0.00	29.971 
08:55	27.8	27.8	27.8	68	18.6	0	1	292	0.00	29.971 
09:00	27.9	27.9	27.9	67	18.4	0	1	292	0.00	29.968 
09:05	28.2	28.2	28.2	66	18.3	0	2	292	0.00	29.968 
09:10	28.5	28.5	28.5	66	18.6	0	2	292	0.00	29.968 
09:15	28.8	28.8	28.8	66	18.9	0	4	248	0.00	29.970 
09:20	29.0	29.0	29.0	66	19.1	0	2	248	0.00	29.970 
09:25	29.1	29.1	29.1	66	19.2	1	4	248	0.00	29.970 
09:30	29.1	29.1	29.1	69	20.2	1	4	292	0.00	29.972 
09:35	28.8	28.8	28.8	73	21.3	2	3	248	0.00	29.972 
09:40	28.4	28.4	28.4	76	21.8	1	3	248	0.00	29.972 
09:45	28.2	28.2	28.2	78	22.2	0	4	248	0.00	29.974 
09:50	27.9	27.9	27.9	79	22.2	1	4	270	0.00	29.974 
09:55	27.8	27.8	27.8	80	22.4	1	2	270	0.00	29.974 
10:00	27.6	27.6	27.6	81	22.5	1	4	315	0.00	29.981 
10:05	27.5	27.5	27.5	81	22.4	1	3	292	0.00	29.981 
10:10	27.5	27.5	27.5	81	22.4	1	4	292	0.00	29.981 
10:15	27.3	27.3	27.3	81	22.3	2	5	292	0.00	29.987 
10:20	27.0	27.0	27.0	80	21.7	2	5	270	0.00	29.987 
10:25	26.7	26.7	26.7	79	21.1	1	4	315	0.00	29.987 
10:30	26.6	26.6	26.6	79	21.0	1	4	338	0.00	29.995 
10:35	26.6	26.6	26.6	80	21.3	1	5	338	0.00	29.995 
10:40	26.0	26.0	26.0	79	20.4	2	6	338	0.00	29.995 
10:45	25.8	25.8	25.8	80	20.5	1	4	338	0.00	30.005 
10:50	26.0	26.0	26.0	80	20.7	1	5	315	0.00	30.005 
10:55	26.1	26.1	26.1	79	20.5	1	5	338	0.00	30.005 
11:00	26.6	26.6	26.6	77	20.4	2	7	270	0.00	30.008 
11:05	27.0	27.0	27.0	76	20.5	2	5	338	0.00	30.008 
11:10	27.2	27.2	27.2	74	20.0	2	5	338	0.00	30.008 
11:15	27.3	27.3	27.3	74	20.1	2	6	270	0.00	30.015 
11:20	27.3	27.3	27.3	73	19.8	2	4	315	0.00	30.015 
11:25	27.2	27.2	27.2	73	19.7	3	7	270	0.00	30.015 
11:30	27.3	27.3	27.3	73	19.8	1	4	315	0.00	30.020 
11:35	27.3	27.3	27.3	71	19.2	2	6	292	0.00	30.020 
11:40	27.5	27.5	27.5	71	19.4	2	6	270	0.00	30.020 
11:45	27.5	27.5	27.5	72	19.7	1	5	270	0.00	30.021 
11:50	27.6	27.6	27.6	71	19.4	2	6	292	0.00	30.021 
11:55	27.8	27.8	27.8	69	19.0	2	5	315	0.00	30.021 
12:00	28.4	28.4	28.4	69	19.5	2	5	270	0.00	30.023 
12:05	28.1	23.6	28.1	69	19.3	4	9	292	0.00	30.023 
12:10	27.5	27.5	27.5	71	19.4	3	7	338	0.00	30.023 
12:15	27.3	27.3	27.3	73	19.8	3	7	292	0.00	30.034 
12:20	27.6	27.6	27.6	71	19.4	2	6	270	0.00	30.034 
12:25	27.9	27.9	27.9	68	18.7	2	9	338	0.00	30.034 
12:30	28.8	28.8	28.8	67	19.2	2	9	338	0.00	30.027 
12:35	29.3	29.3	29.3	65	19.0	3	7	292	0.00	30.027 
12:40	30.0	30.0	30.0	63	19.0	3	11	292	0.00	30.027 
12:45	30.3	26.1	30.3	57	16.9	4	9	315	0.00	30.026 
12:50	30.1	30.1	30.1	52	14.6	3	7	270	0.00	30.026 
12:55	29.8	25.5	29.8	49	13.0	4	12	270	0.00	30.026 
13:00	30.4	30.4	30.4	50	14.0	3	7	292	0.00	30.029 
13:05	30.7	26.6	30.7	48	13.4	4	8	270	0.00	30.029 
13:10	31.0	26.9	31.0	47	13.2	4	8	270	0.00	30.029 
13:15	30.9	30.9	30.9	46	12.6	3	7	315	0.00	30.031 
13:20	30.6	26.5	30.6	47	12.8	4	7	292	0.00	30.031 
13:25	30.0	25.8	30.0	49	13.2	4	9	315	0.00	30.031 
13:30	30.1	25.9	30.1	49	13.3	4	10	338	0.00	30.034 
13:35	30.0	25.8	30.0	49	13.2	4	11	270	0.00	30.034 
13:40	31.0	31.0	31.0	52	15.5	3	5	270	0.00	30.034 
13:45	32.2	32.2	32.2	54	17.4	3	6	270	0.00	30.035 
13:50	32.4	32.4	32.4	52	16.8	3	9	270	0.00	30.035 
13:55	31.6	27.6	31.6	47	13.7	4	10	270	0.00	30.035 
14:00	30.4	30.4	30.4	51	14.5	3	9	292	0.00	30.039 
14:05	29.3	25.0	29.3	57	16.0	4	9	292	0.00	30.039 
14:10	28.8	24.4	28.8	55	14.7	4	11	292	0.00	30.039 
14:15	28.5	24.0	28.5	50	12.3	4	7	270	0.00	30.040 
14:20	29.8	29.8	29.8	50	13.5	2	6	248	0.00	30.040 
14:25	29.7	23.5	29.7	56	15.9	6	14	315	0.00	30.040 
14:30	27.0	22.3	27.0	63	16.1	4	9	270	0.00	30.044 
14:35	27.2	27.2	27.2	62	15.9	3	7	315	0.00	30.044 
14:40	29.1	29.1	29.1	60	17.0	3	10	270	0.00	30.044 
14:45	30.0	25.8	30.0	54	15.4	4	11	270	0.00	30.039 
14:50	29.0	22.7	29.0	57	15.7	6	12	292	0.00	30.039 
14:55	27.0	22.3	27.0	62	15.7	4	11	315	0.00	30.039 
15:00	27.2	27.2	27.2	64	16.7	2	5	292	0.00	30.045 
15:05	28.4	28.4	28.4	62	17.1	3	7	270	0.00	30.045 
15:10	29.1	23.7	29.1	52	13.7	5	9	315	0.00	30.045 
15:15	30.0	23.8	30.0	45	11.3	6	15	315	0.00	30.038 
15:20	30.4	25.2	30.4	40	9.0	5	11	270	0.00	30.038 
15:25	30.6	26.5	30.6	43	10.8	4	12	315	0.00	30.038 
15:30	29.5	24.1	29.5	52	14.1	5	11	292	0.00	30.044 
15:35	29.0	23.6	29.0	57	15.7	5	11	292	0.00	30.044 
15:40	29.0	24.6	29.0	54	14.5	4	10	270	0.00	30.044 
15:45	29.5	25.2	29.5	53	14.5	4	10	292	0.00	30.044 
15:50	29.8	25.5	29.8	54	15.2	4	11	292	0.00	30.044 
15:55	30.0	25.8	30.0	49	13.2	4	12	270	0.00	30.044 
16:00	29.7	25.4	29.7	46	11.5	4	12	338	0.00	30.044 
16:05	29.3	25.0	29.3	48	12.1	4	11	292	0.00	30.044 
16:10	29.0	24.6	29.0	50	12.7	4	11	315	0.00	30.044 
16:15	29.1	24.7	29.1	50	12.8	4	14	338	0.00	30.051 
16:20	29.0	23.6	29.0	45	10.4	5	11	270	0.00	30.051 
16:25	29.1	23.7	29.1	45	10.4	5	12	270	0.00	30.051 
16:30	29.4	25.1	29.4	45	10.7	4	12	270	0.00	30.052 
16:35	29.7	29.7	29.7	46	11.5	3	6	270	0.00	30.052 
16:40	29.3	29.3	29.3	45	10.6	3	10	292	0.00	30.052 
16:45	29.0	24.6	29.0	48	11.8	4	10	270	0.00	30.059 
16:50	28.8	24.4	28.8	47	11.1	4	8	270	0.00	30.059 
16:55	28.5	24.0	28.5	45	9.9	4	10	270	0.00	30.059 
17:00	28.2	22.6	28.2	47	10.6	5	8	248	0.00	30.061 
17:05	28.4	23.9	28.4	50	12.2	4	10	315	0.00	30.061 
17:10	28.8	24.4	28.8	48	11.6	4	11	270	0.00	30.061 
17:15	28.7	24.3	28.7	44	9.6	4	10	270	0.00	30.062 
17:20	28.4	22.8	28.4	43	8.8	5	14	270	0.00	30.062 
17:25	28.7	24.3	28.7	44	9.6	4	9	248	0.00	30.062 
17:30	27.9	23.3	27.9	45	9.3	4	10	292	0.00	30.069 
17:35	27.5	22.9	27.5	44	8.5	4	11	315	0.00	30.069 
17:40	27.2	22.5	27.2	45	8.7	4	7	292	0.00	30.069 
17:45	27.2	22.5	27.2	46	9.2	4	13	315	0.00	30.077 
17:50	27.2	22.5	27.2	48	10.1	4	14	292	0.00	30.077 
17:55	26.9	22.2	26.9	46	8.9	4	12	292	0.00	30.077 
18:00	26.7	22.0	26.7	47	9.2	4	8	292	0.00	30.081 
18:05	26.6	26.6	26.6	47	9.1	2	9	292	0.00	30.081 
18:10	26.7	26.7	26.7	48	9.7	3	10	270	0.00	30.081 
18:15	27.2	21.4	27.2	47	9.7	5	11	338	0.00	30.088 
18:20	27.0	22.3	27.0	46	9.0	4	11	338	0.00	30.088 
18:25	26.6	21.8	26.6	49	10.0	4	11	338	0.00	30.088 
18:30	26.6	21.8	26.6	47	9.1	4	10	292	0.00	30.098 
18:35	26.7	26.7	26.7	44	7.8	3	11	292	0.00	30.098 
18:40	26.7	26.7	26.7	42	6.7	3	9	270	0.00	30.098 
18:45	26.3	20.4	26.3	46	8.4	5	10	292	0.00	30.101 
18:50	25.8	20.9	25.8	45	7.4	4	12	292	0.00	30.101 
18:55	25.3	20.3	25.3	45	7.0	4	9	292	0.00	30.101 
19:00	25.0	20.0	25.0	47	7.6	4	10	315	0.00	30.115 
19:05	24.7	19.6	24.7	50	8.7	4	10	292	0.00	30.115 
19:10	24.5	24.5	24.5	52	9.4	2	6	315	0.00	30.115 
19:15	24.2	19.1	24.2	55	10.4	4	10	338	0.00	30.121 
19:20	23.8	23.8	23.8	58	11.2	3	12	315	0.00	30.121 
19:25	23.6	23.6	23.6	59	11.4	2	6	315	0.00	30.121 
19:30	23.5	23.5	23.5	59	11.3	2	7	315	0.00	30.132 
19:35	23.5	23.5	23.5	58	10.9	3	7	315	0.00	30.132 
19:40	23.5	18.3	23.5	56	10.1	4	10	270	0.00	30.132 
19:45	23.3	23.3	23.3	56	10.0	2	9	338	0.00	30.134 
19:50	23.2	23.2	23.2	54	9.1	3	9	292	0.00	30.134 
19:55	23.0	23.0	23.0	55	9.3	2	5	292	0.00	30.134 
20:00	22.9	22.9	22.9	54	8.8	3	7	292	0.00	30.138 
20:05	22.7	22.7	22.7	54	8.6	2	4	292	0.00	30.138 
20:10	22.7	22.7	22.7	54	8.6	1	4	315	0.00	30.138 
20:15	22.5	22.5	22.5	51	7.1	3	7	315	0.00	30.140 
20:20	22.5	22.5	22.5	50	6.7	1	6	315	0.00	30.140 
20:25	22.4	22.4	22.4	49	6.2	3	7	292	0.00	30.140 
20:30	22.4	22.4	22.4	50	6.6	2	6	315	0.00	30.147 
20:35	22.2	22.2	22.2	50	6.4	3	7	270	0.00	30.147 
20:40	22.2	22.2	22.2	50	6.4	3	7	338	0.00	30.147 
20:45	22.1	22.1	22.1	51	6.8	2	6	315	0.00	30.153 
20:50	22.1	22.1	22.1	51	6.8	2	6	292	0.00	30.153 
20:55	21.9	21.9	21.9	53	7.4	2	6	338	0.00	30.153 
21:00	21.8	21.8	21.8	57	8.9	1	6	292	0.00	30.163 
21:05	21.6	21.6	21.6	60	9.9	2	5	270	0.00	30.163 
21:10	21.3	21.3	21.3	61	10.0	2	5	292	0.00	30.163 
21:15	21.1	21.1	21.1	62	10.1	2	6	270	0.00	30.171 
21:20	21.0	21.0	21.0	62	10.1	3	7	292	0.00	30.171 
21:25	21.0	21.0	21.0	63	10.4	2	5	292	0.00	30.171 
21:30	20.8	20.8	20.8	63	10.2	1	3	270	0.00	30.179 
21:35	20.6	20.6	20.6	64	10.4	1	3	270	0.00	30.179 
21:40	20.5	20.5	20.5	64	10.3	1	4	270	0.00	30.179 
21:45	20.5	20.5	20.5	64	10.3	1	4	292	0.00	30.182 
21:50	20.5	20.5	20.5	63	9.9	1	4	292	0.00	30.182 
21:55	20.3	20.3	20.3	63	9.7	1	3	270	0.00	30.182 
22:00	20.2	20.2	20.2	63	9.7	1	5	270	0.00	30.184 
22:05	20.2	20.2	20.2	62	9.3	1	4	270	0.00	30.184 
22:10	20.2	20.2	20.2	61	8.9	1	5	0	0.00	30.184 
22:15	20.0	20.0	20.0	61	8.7	0	2	315	0.00	30.194 
22:20	20.0	20.0	20.0	62	9.1	0	2	315	0.00	30.194 
22:25	19.9	19.9	19.9	62	9.0	0	2	315	0.00	30.194 
22:30	19.9	19.9	19.9	62	9.0	0	4	315	0.00	30.198 
22:35	19.7	19.7	19.7	62	8.8	0	2	315	0.00	30.198 
22:40	19.7	19.7	19.7	62	8.8	0	1	315	0.00	30.198 
22:45	19.7	19.7	19.7	62	8.8	0	2	315	0.00	30.204 
22:50	19.5	19.5	19.5	63	9.0	0	4	315	0.00	30.204 
22:55	19.5	19.5	19.5	63	9.0	0	1	315	0.00	30.204 
23:00	19.4	19.4	19.4	63	8.9	0	1	315	0.00	30.210 
23:05	19.2	19.2	19.2	63	8.7	0	2	315	0.00	30.210 
23:10	19.2	19.2	19.2	64	9.0	0	2	315	0.00	30.210 
23:15	19.2	19.2	19.2	64	9.0	0	1	315	0.00	30.215 
23:20	19.1	19.1	19.1	64	9.0	0	1	315	0.00	30.215 
23:25	19.1	19.1	19.1	64	9.0	0	1	315	0.00	30.215 
23:30	19.1	19.1	19.1	63	8.6	0	3	315	0.00	30.219 
23:35	19.1	19.1	19.1	63	8.6	1	4	315	0.00	30.219 
23:40	19.1	19.1	19.1	63	8.6	0	2	338	0.00	30.219 
23:45	18.9	18.9	18.9	63	8.4	0	4	338	0.00	30.223 
23:50	19.1	19.1	19.1	62	8.3	0	4	270	0.00	30.223 
23:55	18.9	18.9	18.9	62	8.1	0	3	270	0.00	30.223 

CoCoRaHS
IN-AL-39
A2 Web Hosting
Creative Commons License
GoDaddy
search engine by freefind advanced

loaded 2018-11-21 00:40:44 • last modified 2010-11-18 10:43:29
Privacy PolicyDisclaimer
• wx.awcolley.com is powered by PmWiki v.2002016 •
• all content (unless otherwise noted) © 2018 A W Colley